createdAt,value
2023-04-24T00:01:55.134Z,1.53
2023-04-24T00:04:21.949Z,3.83
2023-04-24T00:06:52.630Z,3.23
2023-04-24T00:09:19.117Z,3.60
2023-04-24T00:11:45.961Z,4.10
2023-04-24T00:14:12.751Z,3.47
2023-04-24T00:16:39.265Z,5.37
2023-04-24T00:19:07.121Z,6.47
2023-04-24T00:21:33.898Z,5.73
2023-04-24T00:24:01.356Z,4.00
2023-04-24T00:26:27.902Z,3.10
2023-04-24T00:28:54.412Z,4.17
2023-04-24T00:31:20.928Z,4.40
2023-04-24T00:33:47.615Z,2.93
2023-04-24T00:36:14.734Z,2.10
2023-04-24T00:38:41.597Z,2.00
2023-04-24T00:41:08.898Z,2.80
2023-04-24T00:43:35.970Z,2.07
2023-04-24T00:46:03.001Z,2.67
2023-04-24T00:48:29.920Z,4.70
2023-04-24T00:50:56.539Z,2.47
2023-04-24T00:53:23.101Z,3.13
2023-04-24T00:55:49.811Z,3.07
2023-04-24T00:58:16.416Z,3.17
2023-04-24T01:00:43.057Z,3.10
2023-04-24T01:03:09.949Z,2.90
2023-04-24T01:05:36.659Z,3.20
2023-04-24T01:08:03.991Z,4.33
2023-04-24T01:10:31.618Z,4.97
2023-04-24T01:12:58.847Z,4.63
2023-04-24T01:15:25.393Z,3.40
2023-04-24T01:17:52.208Z,5.80
2023-04-24T01:20:18.854Z,3.27
2023-04-24T01:22:45.453Z,6.07
2023-04-24T01:25:11.939Z,5.07
2023-04-24T01:27:38.520Z,3.60
2023-04-24T01:30:05.583Z,4.47
2023-04-24T01:32:32.246Z,4.63
2023-04-24T01:34:59.108Z,3.63
2023-04-24T01:37:25.795Z,6.13
2023-04-24T01:39:52.352Z,7.07
2023-04-24T01:42:18.977Z,4.57
2023-04-24T01:44:45.875Z,7.97
2023-04-24T01:47:12.512Z,11.63
2023-04-24T01:49:39.850Z,7.10
2023-04-24T01:52:06.453Z,5.07
2023-04-24T01:54:32.944Z,5.87
2023-04-24T01:57:00.058Z,5.83
2023-04-24T01:59:26.890Z,5.33
2023-04-24T02:01:53.391Z,6.57
2023-04-24T02:04:20.050Z,6.73
2023-04-24T02:06:46.940Z,8.57
2023-04-24T02:09:13.496Z,7.50
2023-04-24T02:11:40.004Z,7.60
2023-04-24T02:14:06.540Z,8.67
2023-04-24T02:16:34.173Z,8.70
2023-04-24T02:19:00.713Z,9.93
2023-04-24T02:21:28.535Z,10.03
2023-04-24T02:23:55.193Z,8.37
2023-04-24T02:26:21.796Z,12.23
2023-04-24T02:28:48.278Z,8.30
2023-04-24T02:31:14.767Z,8.50
2023-04-24T02:33:41.615Z,10.23
2023-04-24T02:36:08.122Z,13.37
2023-04-24T02:38:34.637Z,9.57
2023-04-24T02:41:01.914Z,12.30
2023-04-24T02:43:28.563Z,10.83
2023-04-24T02:45:55.073Z,11.17
2023-04-24T02:48:23.078Z,9.73
2023-04-24T02:50:49.563Z,8.83
2023-04-24T02:53:16.074Z,10.20
2023-04-24T02:55:42.592Z,14.13
2023-04-24T02:58:09.123Z,11.50
2023-04-24T03:00:35.691Z,10.47
2023-04-24T03:03:04.890Z,13.33
2023-04-24T03:05:32.145Z,14.13
2023-04-24T03:07:58.679Z,14.47
2023-04-24T03:10:25.639Z,13.90
2023-04-24T03:12:52.188Z,14.80
2023-04-24T03:15:18.822Z,14.67
2023-04-24T03:17:46.151Z,16.40
2023-04-24T03:20:12.814Z,14.00
2023-04-24T03:22:39.664Z,18.53
2023-04-24T03:25:06.519Z,14.83
2023-04-24T03:27:33.113Z,19.30
2023-04-24T03:29:59.631Z,15.27
2023-04-24T03:32:26.181Z,18.73
2023-04-24T03:34:52.749Z,12.20
2023-04-24T03:37:19.286Z,19.73
2023-04-24T03:39:45.984Z,17.47
2023-04-24T03:42:13.060Z,12.07
2023-04-24T03:44:39.600Z,12.90
2023-04-24T03:47:06.172Z,11.37
2023-04-24T03:49:33.130Z,17.53
2023-04-24T03:51:59.602Z,13.20
2023-04-24T03:54:27.018Z,12.93
2023-04-24T03:56:53.556Z,13.40
2023-04-24T03:59:20.053Z,10.13
2023-04-24T04:01:47.069Z,15.10
2023-04-24T04:04:13.841Z,13.83
2023-04-24T04:06:41.005Z,14.70
2023-04-24T04:09:08.345Z,14.97
2023-04-24T04:11:35.156Z,15.47
2023-04-24T04:14:01.714Z,18.80
2023-04-24T04:16:28.296Z,19.83
2023-04-24T04:18:54.824Z,20.30
2023-04-24T04:21:21.799Z,20.30
2023-04-24T04:23:48.280Z,15.67
2023-04-24T04:26:14.822Z,15.17
2023-04-24T04:28:41.965Z,14.70
2023-04-24T04:31:08.938Z,13.17
2023-04-24T04:33:37.205Z,10.93
2023-04-24T04:36:04.898Z,17.60
2023-04-24T04:38:31.439Z,12.73
2023-04-24T04:40:58.285Z,11.90
2023-04-24T04:43:25.387Z,15.90
2023-04-24T04:45:52.600Z,13.53
2023-04-24T04:48:20.181Z,13.67
2023-04-24T04:50:46.697Z,13.50
2023-04-24T04:53:13.381Z,11.10
2023-04-24T04:55:39.974Z,12.80
2023-04-24T04:58:06.701Z,12.37
2023-04-24T05:00:36.856Z,15.67
2023-04-24T05:03:19.078Z,12.90
2023-04-24T05:05:47.275Z,11.50
2023-04-24T05:08:25.755Z,16.07
2023-04-24T05:10:53.399Z,9.97
2023-04-24T05:13:25.564Z,10.67
2023-04-24T05:15:58.631Z,13.17
2023-04-24T05:18:25.127Z,10.10
2023-04-24T05:20:51.643Z,7.53
2023-04-24T05:23:20.418Z,10.30
2023-04-24T05:25:49.193Z,12.17
2023-04-24T05:28:16.551Z,10.33
2023-04-24T05:30:43.120Z,10.27
2023-04-24T05:33:10.268Z,12.30
2023-04-24T05:35:36.835Z,10.97
2023-04-24T05:38:03.299Z,10.13
2023-04-24T05:40:29.836Z,16.13
2023-04-24T05:42:56.416Z,13.40
2023-04-24T05:45:22.924Z,11.60
2023-04-24T05:47:49.590Z,15.17
2023-04-24T05:50:16.356Z,9.27
2023-04-24T05:52:42.820Z,11.73
2023-04-24T05:55:09.414Z,13.37
2023-04-24T05:57:36.016Z,13.40
2023-04-24T06:00:02.531Z,14.20
2023-04-24T06:02:34.023Z,12.60
2023-04-24T06:05:00.871Z,12.80
2023-04-24T06:07:27.701Z,10.67
2023-04-24T06:09:54.238Z,10.43
2023-04-24T06:12:20.776Z,12.07
2023-04-24T06:14:47.327Z,9.50
2023-04-24T06:17:14.606Z,8.73
2023-04-24T06:19:41.805Z,11.03
2023-04-24T06:22:10.892Z,14.23
2023-04-24T06:24:37.727Z,10.23
2023-04-24T06:27:04.196Z,12.80
2023-04-24T06:29:30.973Z,10.70
2023-04-24T06:31:57.513Z,14.53
2023-04-24T06:34:24.191Z,14.23
2023-04-24T06:36:50.757Z,10.07
2023-04-24T06:39:17.259Z,13.77
2023-04-24T06:41:43.759Z,10.17
2023-04-24T06:44:10.307Z,12.13
2023-04-24T06:46:37.463Z,12.63
2023-04-24T06:49:04.591Z,10.77
2023-04-24T06:51:31.749Z,8.17
2023-04-24T06:53:58.550Z,7.00
2023-04-24T06:56:25.175Z,6.87
2023-04-24T06:58:52.534Z,5.77
2023-04-24T07:01:19.258Z,6.20
2023-04-24T07:03:46.052Z,5.20
2023-04-24T07:06:13.758Z,5.67
2023-04-24T07:08:40.337Z,4.23
2023-04-24T07:11:06.893Z,4.43
2023-04-24T07:13:33.492Z,8.67
2023-04-24T07:16:02.293Z,9.10
2023-04-24T07:18:28.864Z,6.57
2023-04-24T07:20:55.375Z,7.53
2023-04-24T07:23:21.888Z,4.10
2023-04-24T07:25:48.396Z,2.40
2023-04-24T07:28:14.911Z,2.40
2023-04-24T07:30:41.428Z,4.13
2023-04-24T07:33:08.129Z,4.47
2023-04-24T07:35:35.104Z,3.43
2023-04-24T07:38:01.704Z,4.77
2023-04-24T07:40:28.241Z,4.33
2023-04-24T07:42:54.721Z,3.37
2023-04-24T07:45:21.614Z,1.63
2023-04-24T07:47:48.287Z,26.77
2023-04-24T07:50:14.823Z,4.27
2023-04-24T07:52:41.322Z,1.57
2023-04-24T07:55:08.256Z,1.60
2023-04-24T07:57:34.984Z,1.10
2023-04-24T08:00:01.497Z,1.80
2023-04-24T08:02:30.652Z,2.40
2023-04-24T08:04:59.477Z,1.83
2023-04-24T08:07:27.061Z,1.73
2023-04-24T08:09:53.563Z,2.30
2023-04-24T08:12:20.077Z,2.50
2023-04-24T08:14:47.383Z,2.13
2023-04-24T08:17:13.881Z,2.77
2023-04-24T08:19:44.958Z,2.37
2023-04-24T08:22:11.742Z,2.30
2023-04-24T08:24:40.500Z,3.07
2023-04-24T08:27:07.000Z,1.60
2023-04-24T08:29:33.937Z,2.40
2023-04-24T08:32:00.548Z,2.63
2023-04-24T08:34:27.126Z,3.40
2023-04-24T08:36:53.654Z,3.60
2023-04-24T08:39:20.205Z,5.03
2023-04-24T08:41:47.038Z,2.97
2023-04-24T08:44:15.485Z,1.53
2023-04-24T08:46:42.418Z,1.60
2023-04-24T08:49:09.029Z,1.20
2023-04-24T08:51:37.761Z,0.80
2023-04-24T08:54:05.109Z,2.03
2023-04-24T08:56:33.157Z,1.67
2023-04-24T08:58:59.688Z,2.23
2023-04-24T09:01:26.346Z,1.67
2023-04-24T09:03:54.536Z,5.43
2023-04-24T09:06:23.015Z,4.47
2023-04-24T09:08:51.102Z,8.60
2023-04-24T09:11:17.995Z,7.07
2023-04-24T09:13:44.776Z,7.27
2023-04-24T09:16:11.445Z,8.43
2023-04-24T09:18:38.009Z,8.30
2023-04-24T09:21:07.813Z,9.33
2023-04-24T09:23:34.461Z,8.57
2023-04-24T09:26:01.721Z,10.40
2023-04-24T09:28:31.937Z,6.77
2023-04-24T09:31:05.544Z,8.77
2023-04-24T09:33:34.790Z,10.23
2023-04-24T09:36:02.461Z,11.03
2023-04-24T09:38:39.159Z,8.57
2023-04-24T09:41:06.876Z,15.73
2023-04-24T09:43:33.733Z,19.10
2023-04-24T09:46:05.451Z,19.87
2023-04-24T09:48:35.470Z,10.23
2023-04-24T09:51:02.621Z,13.20
2023-04-24T09:53:29.495Z,20.70
2023-04-24T09:55:56.471Z,17.90
2023-04-24T09:58:27.575Z,41.83
2023-04-24T10:00:59.611Z,27.87
2023-04-24T10:03:29.397Z,23.97
2023-04-24T10:05:59.223Z,25.43
2023-04-24T10:08:26.264Z,17.70
2023-04-24T10:10:53.470Z,17.80
2023-04-24T10:13:20.430Z,35.93
2023-04-24T10:15:48.596Z,42.60
2023-04-24T10:18:16.693Z,42.47
2023-04-24T10:20:43.261Z,22.57
2023-04-24T10:23:10.085Z,26.27
2023-04-24T10:25:38.049Z,29.57
2023-04-24T10:28:05.033Z,31.87
2023-04-24T10:30:36.159Z,44.40
2023-04-24T10:33:06.550Z,33.83
2023-04-24T10:35:35.965Z,20.03
2023-04-24T10:38:22.744Z,12.00
2023-04-24T10:40:49.516Z,13.13
2023-04-24T10:43:18.974Z,22.10
2023-04-24T10:46:01.755Z,16.97
2023-04-24T10:48:28.352Z,14.77
2023-04-24T10:50:54.958Z,21.73
2023-04-24T10:53:24.407Z,14.97
2023-04-24T10:55:51.992Z,11.60
2023-04-24T10:58:23.176Z,15.13
2023-04-24T11:00:59.635Z,12.10
2023-04-24T11:03:30.656Z,12.13
2023-04-24T11:06:05.169Z,18.50
2023-04-24T11:08:39.550Z,11.77
2023-04-24T11:11:09.090Z,12.23
2023-04-24T11:13:54.564Z,16.13
2023-04-24T11:16:23.273Z,11.97
2023-04-24T11:18:55.439Z,15.60
2023-04-24T11:21:23.425Z,15.83
2023-04-24T11:23:50.020Z,10.00
2023-04-24T11:26:20.542Z,8.50
2023-04-24T11:28:47.606Z,10.53
2023-04-24T11:31:33.007Z,9.83
2023-04-24T11:34:06.396Z,10.00
2023-04-24T11:36:32.920Z,11.03
2023-04-24T11:38:59.521Z,7.30
2023-04-24T11:41:26.916Z,13.33
2023-04-24T11:43:54.270Z,9.20
2023-04-24T11:46:22.102Z,12.70
2023-04-24T11:48:48.729Z,9.73
2023-04-24T11:51:15.503Z,12.30
2023-04-24T11:53:42.681Z,9.03
2023-04-24T11:56:10.647Z,13.77
2023-04-24T11:58:37.784Z,6.60
2023-04-24T12:01:04.630Z,8.13
2023-04-24T12:03:31.445Z,6.67
2023-04-24T12:06:11.124Z,9.27
2023-04-24T12:08:38.579Z,8.73
2023-04-24T12:11:06.926Z,10.37
2023-04-24T12:13:34.024Z,14.93
2023-04-24T12:16:01.744Z,11.97
2023-04-24T12:18:28.255Z,11.10
2023-04-24T12:23:34.652Z,10.97
2023-04-24T12:26:02.598Z,12.70
2023-04-24T12:28:36.233Z,12.00
2023-04-24T12:31:02.879Z,13.33
2023-04-24T12:33:33.554Z,16.37
2023-04-24T12:36:00.200Z,26.63
2023-04-24T12:38:27.589Z,29.67
2023-04-24T12:41:07.144Z,20.03
2023-04-24T12:43:33.770Z,22.13
2023-04-24T12:46:00.324Z,15.63
2023-04-24T12:48:27.647Z,14.60
2023-04-24T12:50:54.177Z,12.03
2023-04-24T12:53:21.262Z,3.60
2023-04-24T12:55:53.511Z,5.47
2023-04-24T12:58:22.955Z,7.30
2023-04-24T13:00:49.667Z,11.10
2023-04-24T13:03:16.509Z,10.10
2023-04-24T13:05:43.946Z,4.77
2023-04-24T13:08:10.648Z,4.07
2023-04-24T13:10:37.189Z,7.20
2023-04-24T13:13:04.516Z,4.53
2023-04-24T13:15:31.024Z,3.50
2023-04-24T13:17:57.669Z,4.40
2023-04-24T13:20:24.219Z,10.43
2023-04-24T13:22:50.707Z,3.90
2023-04-24T13:25:18.273Z,4.10
2023-04-24T13:27:44.927Z,7.73
2023-04-24T13:30:11.775Z,3.30
2023-04-24T13:32:38.364Z,4.40
2023-04-24T13:35:05.309Z,4.70
2023-04-24T13:37:32.240Z,6.17
2023-04-24T13:39:58.822Z,5.77
2023-04-24T13:42:25.368Z,7.00
2023-04-24T13:44:52.373Z,7.63
2023-04-24T13:47:18.971Z,5.17
2023-04-24T13:49:45.644Z,4.90
2023-04-24T13:52:12.739Z,4.17
2023-04-24T13:54:39.231Z,5.13
2023-04-24T13:57:05.932Z,9.93
2023-04-24T13:59:32.798Z,4.90
2023-04-24T14:01:59.726Z,4.53
2023-04-24T14:04:26.708Z,5.73
2023-04-24T14:06:53.753Z,4.80
2023-04-24T14:09:20.322Z,2.13
2023-04-24T14:11:46.909Z,3.17
2023-04-24T14:14:13.432Z,5.00
2023-04-24T14:16:40.830Z,7.43
2023-04-24T14:19:07.576Z,4.40
2023-04-24T14:21:34.380Z,5.37
2023-04-24T14:24:01.773Z,4.90
2023-04-24T14:26:28.384Z,3.50
2023-04-24T14:29:03.834Z,8.70
2023-04-24T14:31:37.818Z,2.30
2023-04-24T14:34:04.437Z,3.20
2023-04-24T14:36:32.747Z,3.47
2023-04-24T14:38:59.322Z,3.93
2023-04-24T14:41:25.843Z,5.43
2023-04-24T14:43:52.475Z,6.57
2023-04-24T14:46:19.485Z,4.90
2023-04-24T14:48:46.210Z,5.87
2023-04-24T14:51:13.319Z,4.97
2023-04-24T14:53:39.864Z,4.67
2023-04-24T14:56:06.629Z,2.00
2023-04-24T14:58:33.819Z,2.90
2023-04-24T15:01:00.517Z,4.37
2023-04-24T15:03:28.620Z,6.63
2023-04-24T15:05:55.441Z,8.63
2023-04-24T15:08:22.090Z,7.27
2023-04-24T15:10:49.277Z,3.33
2023-04-24T15:13:16.851Z,14.27
2023-04-24T15:15:43.571Z,12.23
2023-04-24T15:18:12.730Z,12.73
2023-04-24T15:20:45.525Z,7.17
2023-04-24T15:23:12.176Z,5.73
2023-04-24T15:25:40.076Z,6.97
2023-04-24T15:28:07.107Z,14.03
2023-04-24T15:30:33.903Z,11.03
2023-04-24T15:33:01.344Z,8.97
2023-04-24T15:35:28.059Z,10.17
2023-04-24T15:37:54.753Z,5.33
2023-04-24T15:40:21.648Z,8.13
2023-04-24T15:42:48.694Z,15.57
2023-04-24T15:45:15.356Z,19.43
2023-04-24T15:47:42.274Z,13.63
2023-04-24T15:50:14.429Z,21.13
2023-04-24T15:52:41.433Z,6.00
2023-04-24T15:55:08.316Z,3.30
2023-04-24T15:57:34.950Z,3.13
2023-04-24T16:00:01.665Z,5.10
2023-04-24T16:02:28.723Z,8.03
2023-04-24T16:04:55.456Z,8.90
2023-04-24T16:07:22.126Z,9.77
2023-04-24T16:09:48.727Z,6.13
2023-04-24T16:12:15.503Z,3.93
2023-04-24T16:14:42.230Z,5.40
2023-04-24T16:17:09.129Z,4.60
2023-04-24T16:19:35.896Z,9.83
2023-04-24T16:22:03.415Z,6.07
2023-04-24T16:24:30.525Z,5.40
2023-04-24T16:26:57.280Z,4.47
2023-04-24T16:29:24.005Z,5.47
2023-04-24T16:31:50.953Z,4.93
2023-04-24T16:34:17.699Z,5.03
2023-04-24T16:36:44.484Z,2.60
2023-04-24T16:39:11.202Z,3.87
2023-04-24T16:41:40.489Z,6.47
2023-04-24T16:44:07.222Z,3.77
2023-04-24T16:46:34.127Z,3.60
2023-04-24T16:49:00.985Z,5.77
2023-04-24T16:51:28.931Z,4.83
2023-04-24T16:53:55.853Z,5.00
2023-04-24T16:56:25.059Z,14.77
2023-04-24T16:58:51.856Z,6.67
2023-04-24T17:01:18.503Z,4.37
2023-04-24T17:03:45.859Z,7.37
2023-04-24T17:06:12.885Z,7.97
2023-04-24T17:08:39.529Z,8.53
2023-04-24T17:11:06.060Z,6.50
2023-04-24T17:13:32.697Z,4.00
2023-04-24T17:15:59.287Z,5.30
2023-04-24T17:18:26.013Z,3.97
2023-04-24T17:20:52.632Z,7.03
2023-04-24T17:23:20.572Z,3.83
2023-04-24T17:25:47.135Z,2.50
2023-04-24T17:28:23.822Z,4.40
2023-04-24T17:30:50.509Z,5.13
2023-04-24T17:33:17.225Z,3.67
2023-04-24T17:35:43.800Z,3.20
2023-04-24T17:38:10.479Z,4.13
2023-04-24T17:40:38.312Z,7.87
2023-04-24T17:43:05.023Z,6.70
2023-04-24T17:45:32.326Z,4.47
2023-04-24T17:47:58.898Z,5.27
2023-04-24T17:50:25.526Z,6.30
2023-04-24T17:52:52.095Z,5.40
2023-04-24T17:55:18.595Z,5.57
2023-04-24T17:57:45.173Z,4.53
2023-04-24T18:00:12.053Z,5.20
2023-04-24T18:02:39.117Z,4.50
2023-04-24T18:05:05.775Z,6.03
2023-04-24T18:07:32.317Z,7.47
2023-04-24T18:09:58.955Z,7.43
2023-04-24T18:12:25.672Z,5.87
2023-04-24T18:14:59.798Z,5.67
2023-04-24T18:17:33.280Z,6.47
2023-04-24T18:19:59.814Z,11.83
2023-04-24T18:22:26.454Z,6.27
2023-04-24T18:24:53.015Z,7.43
2023-04-24T18:27:19.560Z,9.10
2023-04-24T18:29:46.093Z,5.77
2023-04-24T18:32:12.635Z,10.40
2023-04-24T18:34:39.239Z,6.30
2023-04-24T18:37:05.740Z,5.27
2023-04-24T18:39:32.280Z,6.63
2023-04-24T18:41:59.023Z,8.10
2023-04-24T18:44:26.884Z,7.40
2023-04-24T18:46:53.481Z,8.37
2023-04-24T18:49:20.113Z,8.00
2023-04-24T18:51:54.024Z,4.60
2023-04-24T18:54:21.058Z,8.33
2023-04-24T18:56:47.644Z,6.03
2023-04-24T18:59:14.229Z,9.53
2023-04-24T19:01:40.900Z,6.37
2023-04-24T19:04:07.540Z,7.00
2023-04-24T19:06:34.093Z,7.10
2023-04-24T19:09:00.634Z,5.77
2023-04-24T19:11:27.257Z,8.37
2023-04-24T19:13:53.973Z,9.90
2023-04-24T19:16:20.622Z,7.13
2023-04-24T19:18:47.566Z,6.97
2023-04-24T19:21:14.578Z,9.53
2023-04-24T19:23:41.424Z,9.63
2023-04-24T19:26:07.972Z,8.47
2023-04-24T19:28:34.482Z,5.73
2023-04-24T19:31:01.070Z,9.00
2023-04-24T19:33:27.931Z,8.63
2023-04-24T19:35:54.429Z,7.40
2023-04-24T19:38:20.982Z,9.40
2023-04-24T19:40:47.576Z,4.37
2023-04-24T19:43:14.065Z,8.20
2023-04-24T19:45:40.845Z,7.07
2023-04-24T19:48:07.795Z,8.80
2023-04-24T19:50:35.085Z,9.30
2023-04-24T19:53:01.605Z,7.17
2023-04-24T19:55:28.169Z,5.53
2023-04-24T19:57:57.473Z,8.33
2023-04-24T20:00:24.057Z,10.37
2023-04-24T20:02:51.152Z,8.37
2023-04-24T20:05:17.918Z,8.53
2023-04-24T20:07:46.192Z,8.07
2023-04-24T20:10:12.705Z,8.23
2023-04-24T20:12:39.289Z,8.97
2023-04-24T20:15:06.499Z,10.30
2023-04-24T20:17:33.032Z,7.97
2023-04-24T20:19:59.740Z,7.07
2023-04-24T20:22:26.449Z,9.83
2023-04-24T20:24:52.978Z,9.83
2023-04-24T20:27:20.424Z,9.70
2023-04-24T20:29:46.930Z,8.73
2023-04-24T20:32:13.529Z,8.40
2023-04-24T20:34:40.087Z,8.53
2023-04-24T20:37:06.812Z,8.83
2023-04-24T20:39:33.388Z,12.00
2023-04-24T20:42:01.109Z,13.93
2023-04-24T20:44:27.983Z,11.83
2023-04-24T20:46:54.521Z,9.00
2023-04-24T20:49:21.151Z,8.57
2023-04-24T20:51:47.751Z,7.27
2023-04-24T20:54:14.271Z,7.33
2023-04-24T20:56:40.790Z,9.57
2023-04-24T20:59:09.510Z,7.30
2023-04-24T21:01:36.115Z,8.93
2023-04-24T21:04:02.688Z,11.83
2023-04-24T21:06:29.270Z,7.83
2023-04-24T21:08:55.918Z,10.20
2023-04-24T21:11:22.654Z,12.97
2023-04-24T21:13:49.376Z,10.93
2023-04-24T21:16:16.089Z,10.80
2023-04-24T21:18:42.688Z,12.00
2023-04-24T21:21:09.513Z,10.13
2023-04-24T21:23:36.294Z,8.57
2023-04-24T21:26:05.643Z,8.77
2023-04-24T21:28:32.576Z,8.87
2023-04-24T21:30:59.164Z,9.30
2023-04-24T21:33:25.793Z,15.00
2023-04-24T21:35:52.734Z,12.93
2023-04-24T21:38:24.659Z,9.80
2023-04-24T21:40:51.927Z,7.80
2023-04-24T21:43:19.654Z,10.30
2023-04-24T21:45:47.162Z,7.60
2023-04-24T21:48:14.178Z,9.23
2023-04-24T21:50:40.966Z,6.77
2023-04-24T21:53:07.573Z,8.63
2023-04-24T21:55:34.175Z,12.73
2023-04-24T21:58:01.181Z,12.00
2023-04-24T22:00:27.721Z,10.77
2023-04-24T22:02:54.355Z,13.83
2023-04-24T22:05:21.042Z,8.23
2023-04-24T22:07:50.564Z,11.27
2023-04-24T22:10:17.473Z,12.80
2023-04-24T22:12:44.128Z,14.20
2023-04-24T22:15:13.071Z,8.17
2023-04-24T22:17:40.242Z,9.60
2023-04-24T22:20:07.590Z,12.07
2023-04-24T22:22:34.841Z,9.77
2023-04-24T22:25:01.413Z,9.57
2023-04-24T22:27:27.932Z,12.00
2023-04-24T22:29:54.449Z,13.67
2023-04-24T22:32:21.250Z,9.07
2023-04-24T22:34:47.755Z,9.00
2023-04-24T22:37:14.351Z,17.47
2023-04-24T22:39:41.226Z,13.20
2023-04-24T22:42:07.723Z,13.10
2023-04-24T22:44:34.249Z,16.70
2023-04-24T22:47:00.861Z,11.40
2023-04-24T22:49:27.584Z,11.10
2023-04-24T22:51:57.883Z,8.20
2023-04-24T22:54:24.454Z,19.97
2023-04-24T22:56:52.836Z,11.77
2023-04-24T22:59:19.388Z,12.27
2023-04-24T23:01:45.953Z,10.30
2023-04-24T23:04:12.711Z,9.17
2023-04-24T23:06:39.364Z,10.87
2023-04-24T23:09:06.240Z,12.83
2023-04-24T23:11:35.251Z,10.40
2023-04-24T23:14:01.873Z,14.57
2023-04-24T23:16:31.263Z,12.83
2023-04-24T23:18:58.160Z,12.10
2023-04-24T23:21:24.678Z,13.47
2023-04-24T23:23:52.922Z,13.27
2023-04-24T23:26:19.901Z,16.37
2023-04-24T23:28:46.416Z,15.70
2023-04-24T23:31:12.999Z,12.13
2023-04-24T23:33:39.483Z,15.90
2023-04-24T23:36:06.797Z,10.83
2023-04-24T23:38:43.171Z,11.80
2023-04-24T23:41:16.052Z,14.50
2023-04-24T23:43:42.585Z,11.87
2023-04-24T23:46:09.174Z,13.97
2023-04-24T23:48:37.179Z,10.23
2023-04-24T23:51:03.756Z,18.30
2023-04-24T23:53:30.463Z,12.00
2023-04-24T23:55:57.258Z,12.53
2023-04-24T23:58:24.105Z,10.37
